Terminal Aerodrome Forecast
Issued by NWS

Home | Current Version | Previous Version | Text Only | Print | Product List | Glossary On
Versions: 1 2 3 4 5 6 7 8 9 10 11 12
000
FTUS45 KVEF 312324
TAFVGT
TAF
KVGT 312324Z 0100/0124 16012G18KT P6SM FEW130 SCT200
     FM010300 20008KT P6SM SCT130 SCT200
     FM011500 15008KT P6SM FEW120 SCT200
     FM012000 18012G20KT P6SM FEW120 SCT200=

USA.gov is the U.S. government's official web portal to all federal, state and local government web resources and services.